sensor_id;sensor_type;location;lat;lon;timestamp;temperature;humidity
21353;DHT22;10834;52.268;6.770;2022-12-05T00:02:08;3.90;99.90
21353;DHT22;10834;52.268;6.770;2022-12-05T00:04:54;3.90;99.90
21353;DHT22;10834;52.268;6.770;2022-12-05T00:07:40;3.90;99.90
21353;DHT22;10834;52.268;6.770;2022-12-05T00:10:26;3.90;99.90
21353;DHT22;10834;52.268;6.770;2022-12-05T00:13:12;3.90;99.90
21353;DHT22;10834;52.268;6.770;2022-12-05T00:15:58;3.90;99.90
21353;DHT22;10834;52.268;6.770;2022-12-05T00:18:45;4.00;99.90
21353;DHT22;10834;52.268;6.770;2022-12-05T00:21:34;3.90;99.90
21353;DHT22;10834;52.268;6.770;2022-12-05T00:24:20;3.90;99.90
21353;DHT22;10834;52.268;6.770;2022-12-05T00:27:06;3.90;99.90
21353;DHT22;10834;52.268;6.770;2022-12-05T00:29:52;3.90;99.90
21353;DHT22;10834;52.268;6.770;2022-12-05T00:32:38;4.00;99.90
21353;DHT22;10834;52.268;6.770;2022-12-05T00:35:25;3.90;99.90
21353;DHT22;10834;52.268;6.770;2022-12-05T00:38:11;3.90;99.90
21353;DHT22;10834;52.268;6.770;2022-12-05T00:41:02;3.90;99.90
21353;DHT22;10834;52.268;6.770;2022-12-05T00:43:49;3.90;99.90
21353;DHT22;10834;52.268;6.770;2022-12-05T00:46:36;3.90;99.90
21353;DHT22;10834;52.268;6.770;2022-12-05T00:49:22;3.90;99.90
21353;DHT22;10834;52.268;6.770;2022-12-05T00:52:08;4.00;99.90
21353;DHT22;10834;52.268;6.770;2022-12-05T00:54:54;4.00;99.90
21353;DHT22;10834;52.268;6.770;2022-12-05T00:57:40;4.00;99.90
21353;DHT22;10834;52.268;6.770;2022-12-05T01:00:26;4.00;99.90
21353;DHT22;10834;52.268;6.770;2022-12-05T01:03:12;4.00;99.90
21353;DHT22;10834;52.268;6.770;2022-12-05T01:05:58;4.00;99.90
21353;DHT22;10834;52.268;6.770;2022-12-05T01:08:45;4.00;99.90
21353;DHT22;10834;52.268;6.770;2022-12-05T01:11:31;4.00;99.90
21353;DHT22;10834;52.268;6.770;2022-12-05T01:14:20;4.00;99.90
21353;DHT22;10834;52.268;6.770;2022-12-05T01:17:06;4.10;99.90
21353;DHT22;10834;52.268;6.770;2022-12-05T01:19:52;4.00;99.90
21353;DHT22;10834;52.268;6.770;2022-12-05T01:22:38;4.10;99.90
21353;DHT22;10834;52.268;6.770;2022-12-05T01:25:24;4.00;99.90
21353;DHT22;10834;52.268;6.770;2022-12-05T01:28:10;4.10;99.90
21353;DHT22;10834;52.268;6.770;2022-12-05T01:30:57;4.10;99.90
21353;DHT22;10834;52.268;6.770;2022-12-05T01:33:43;4.10;99.90
21353;DHT22;10834;52.268;6.770;2022-12-05T01:36:30;4.10;99.90
21353;DHT22;10834;52.268;6.770;2022-12-05T01:39:16;4.10;99.90
21353;DHT22;10834;52.268;6.770;2022-12-05T01:42:04;4.10;99.90
21353;DHT22;10834;52.268;6.770;2022-12-05T01:47:37;4.10;99.90
21353;DHT22;10834;52.268;6.770;2022-12-05T01:50:23;4.10;99.90
21353;DHT22;10834;52.268;6.770;2022-12-05T01:53:09;4.10;99.90
21353;DHT22;10834;52.268;6.770;2022-12-05T01:55:56;4.10;99.90
21353;DHT22;10834;52.268;6.770;2022-12-05T01:58:43;4.10;99.90
21353;DHT22;10834;52.268;6.770;2022-12-05T02:01:29;4.10;99.90
21353;DHT22;10834;52.268;6.770;2022-12-05T02:04:16;4.10;99.90
21353;DHT22;10834;52.268;6.770;2022-12-05T02:07:02;4.10;99.90
21353;DHT22;10834;52.268;6.770;2022-12-05T02:09:50;4.10;99.90
21353;DHT22;10834;52.268;6.770;2022-12-05T02:12:36;4.10;99.90
21353;DHT22;10834;52.268;6.770;2022-12-05T02:15:40;4.10;99.90
21353;DHT22;10834;52.268;6.770;2022-12-05T02:34:44;4.20;99.90
21353;DHT22;10834;52.268;6.770;2022-12-05T02:44:56;4.20;99.90
21353;DHT22;10834;52.268;6.770;2022-12-05T02:47:10;4.20;99.90
21353;DHT22;10834;52.268;6.770;2022-12-05T02:49:58;4.20;99.90
21353;DHT22;10834;52.268;6.770;2022-12-05T02:52:47;4.20;99.90
21353;DHT22;10834;52.268;6.770;2022-12-05T02:55:34;4.20;99.90
21353;DHT22;10834;52.268;6.770;2022-12-05T02:58:24;4.20;99.90
21353;DHT22;10834;52.268;6.770;2022-12-05T03:01:13;4.30;99.90
21353;DHT22;10834;52.268;6.770;2022-12-05T03:04:02;4.30;99.90
21353;DHT22;10834;52.268;6.770;2022-12-05T03:09:46;4.20;99.90
21353;DHT22;10834;52.268;6.770;2022-12-05T03:12:38;4.30;99.90
21353;DHT22;10834;52.268;6.770;2022-12-05T03:15:31;4.30;99.90
21353;DHT22;10834;52.268;6.770;2022-12-05T03:18:27;4.20;99.90
21353;DHT22;10834;52.268;6.770;2022-12-05T03:24:17;4.30;99.90
21353;DHT22;10834;52.268;6.770;2022-12-05T03:27:20;4.30;99.90
21353;DHT22;10834;52.268;6.770;2022-12-05T03:30:13;4.30;99.90
21353;DHT22;10834;52.268;6.770;2022-12-05T03:36:01;4.30;99.90
21353;DHT22;10834;52.268;6.770;2022-12-05T03:39:30;4.30;99.90
21353;DHT22;10834;52.268;6.770;2022-12-05T03:42:13;4.30;99.90
21353;DHT22;10834;52.268;6.770;2022-12-05T03:45:07;4.30;99.90
21353;DHT22;10834;52.268;6.770;2022-12-05T03:48:18;4.30;99.90
21353;DHT22;10834;52.268;6.770;2022-12-05T03:51:07;4.30;99.90
21353;DHT22;10834;52.268;6.770;2022-12-05T03:54:00;4.30;99.90
21353;DHT22;10834;52.268;6.770;2022-12-05T03:56:53;4.30;99.90
21353;DHT22;10834;52.268;6.770;2022-12-05T03:59:54;4.30;99.90
21353;DHT22;10834;52.268;6.770;2022-12-05T04:03:02;4.30;99.90
21353;DHT22;10834;52.268;6.770;2022-12-05T04:05:53;4.30;99.90
21353;DHT22;10834;52.268;6.770;2022-12-05T04:08:46;4.30;99.90
21353;DHT22;10834;52.268;6.770;2022-12-05T04:11:35;4.30;99.90
21353;DHT22;10834;52.268;6.770;2022-12-05T04:14:29;4.30;99.90
21353;DHT22;10834;52.268;6.770;2022-12-05T04:23:32;4.30;99.90
21353;DHT22;10834;52.268;6.770;2022-12-05T04:26:27;4.40;99.90
21353;DHT22;10834;52.268;6.770;2022-12-05T04:29:26;4.30;99.90
21353;DHT22;10834;52.268;6.770;2022-12-05T04:32:13;4.30;99.90
21353;DHT22;10834;52.268;6.770;2022-12-05T04:35:03;4.40;99.90
21353;DHT22;10834;52.268;6.770;2022-12-05T04:37:57;4.30;99.90
21353;DHT22;10834;52.268;6.770;2022-12-05T04:41:05;4.40;99.90
21353;DHT22;10834;52.268;6.770;2022-12-05T04:43:53;4.30;99.90
21353;DHT22;10834;52.268;6.770;2022-12-05T04:46:42;4.40;99.90
21353;DHT22;10834;52.268;6.770;2022-12-05T04:49:31;4.30;99.90
21353;DHT22;10834;52.268;6.770;2022-12-05T04:52:18;4.30;99.90
21353;DHT22;10834;52.268;6.770;2022-12-05T05:03:52;4.40;99.90
21353;DHT22;10834;52.268;6.770;2022-12-05T05:06:40;4.40;99.90
21353;DHT22;10834;52.268;6.770;2022-12-05T05:09:26;4.30;99.90
21353;DHT22;10834;52.268;6.770;2022-12-05T05:12:12;4.40;99.90
21353;DHT22;10834;52.268;6.770;2022-12-05T05:14:58;4.40;99.90
21353;DHT22;10834;52.268;6.770;2022-12-05T05:17:44;4.40;99.90
21353;DHT22;10834;52.268;6.770;2022-12-05T05:20:30;4.40;99.90
21353;DHT22;10834;52.268;6.770;2022-12-05T05:23:17;4.40;99.90
21353;DHT22;10834;52.268;6.770;2022-12-05T05:26:03;4.40;99.90
21353;DHT22;10834;52.268;6.770;2022-12-05T05:28:49;4.40;99.90
21353;DHT22;10834;52.268;6.770;2022-12-05T05:31:37;4.40;99.90
21353;DHT22;10834;52.268;6.770;2022-12-05T05:34:23;4.40;99.90
21353;DHT22;10834;52.268;6.770;2022-12-05T05:37:11;4.40;99.90
21353;DHT22;10834;52.268;6.770;2022-12-05T05:39:57;4.40;99.90
21353;DHT22;10834;52.268;6.770;2022-12-05T05:42:48;4.40;99.90
21353;DHT22;10834;52.268;6.770;2022-12-05T05:45:36;4.40;99.90
21353;DHT22;10834;52.268;6.770;2022-12-05T05:48:22;4.40;99.90
21353;DHT22;10834;52.268;6.770;2022-12-05T05:51:10;4.40;99.90
21353;DHT22;10834;52.268;6.770;2022-12-05T05:53:58;4.40;99.90
21353;DHT22;10834;52.268;6.770;2022-12-05T05:56:44;4.40;99.90
21353;DHT22;10834;52.268;6.770;2022-12-05T05:59:30;4.40;99.90
21353;DHT22;10834;52.268;6.770;2022-12-05T06:02:16;4.40;99.90
21353;DHT22;10834;52.268;6.770;2022-12-05T06:05:03;4.40;99.90
21353;DHT22;10834;52.268;6.770;2022-12-05T06:07:51;4.40;99.90
21353;DHT22;10834;52.268;6.770;2022-12-05T06:10:38;4.40;99.90
21353;DHT22;10834;52.268;6.770;2022-12-05T06:13:24;4.40;99.90
21353;DHT22;10834;52.268;6.770;2022-12-05T06:16:12;4.40;99.90
21353;DHT22;10834;52.268;6.770;2022-12-05T06:18:58;4.40;99.90
21353;DHT22;10834;52.268;6.770;2022-12-05T06:21:44;4.40;99.90
21353;DHT22;10834;52.268;6.770;2022-12-05T06:24:30;4.40;99.90
21353;DHT22;10834;52.268;6.770;2022-12-05T06:27:16;4.40;99.90
21353;DHT22;10834;52.268;6.770;2022-12-05T06:30:03;4.40;99.90
21353;DHT22;10834;52.268;6.770;2022-12-05T06:32:49;4.40;99.90
21353;DHT22;10834;52.268;6.770;2022-12-05T06:35:35;4.40;99.90
21353;DHT22;10834;52.268;6.770;2022-12-05T06:38:21;4.40;99.90
21353;DHT22;10834;52.268;6.770;2022-12-05T06:41:13;4.40;99.90
21353;DHT22;10834;52.268;6.770;2022-12-05T06:44:00;4.40;99.90
21353;DHT22;10834;52.268;6.770;2022-12-05T06:46:46;4.40;99.90
21353;DHT22;10834;52.268;6.770;2022-12-05T06:49:32;4.40;99.90
21353;DHT22;10834;52.268;6.770;2022-12-05T06:52:19;4.40;99.90
21353;DHT22;10834;52.268;6.770;2022-12-05T06:55:05;4.40;99.90
21353;DHT22;10834;52.268;6.770;2022-12-05T06:57:51;4.40;99.90
21353;DHT22;10834;52.268;6.770;2022-12-05T07:00:38;4.40;99.90
21353;DHT22;10834;52.268;6.770;2022-12-05T07:03:42;4.40;99.90
21353;DHT22;10834;52.268;6.770;2022-12-05T07:06:33;4.40;99.90
21353;DHT22;10834;52.268;6.770;2022-12-05T07:09:23;4.40;99.90
21353;DHT22;10834;52.268;6.770;2022-12-05T07:12:31;4.40;99.90
21353;DHT22;10834;52.268;6.770;2022-12-05T07:15:18;4.40;99.90
21353;DHT22;10834;52.268;6.770;2022-12-05T07:18:04;4.50;99.90
21353;DHT22;10834;52.268;6.770;2022-12-05T07:20:57;4.50;99.90
21353;DHT22;10834;52.268;6.770;2022-12-05T07:23:45;4.50;99.90
21353;DHT22;10834;52.268;6.770;2022-12-05T07:26:31;4.50;99.90
21353;DHT22;10834;52.268;6.770;2022-12-05T07:29:17;4.50;99.90
21353;DHT22;10834;52.268;6.770;2022-12-05T07:32:03;4.50;99.90
21353;DHT22;10834;52.268;6.770;2022-12-05T07:34:50;4.50;99.90
21353;DHT22;10834;52.268;6.770;2022-12-05T07:37:36;4.50;99.90
21353;DHT22;10834;52.268;6.770;2022-12-05T07:40:22;4.50;99.90
21353;DHT22;10834;52.268;6.770;2022-12-05T07:43:08;4.50;99.90
21353;DHT22;10834;52.268;6.770;2022-12-05T07:45:54;4.50;99.90
21353;DHT22;10834;52.268;6.770;2022-12-05T07:48:40;4.50;99.90
21353;DHT22;10834;52.268;6.770;2022-12-05T07:51:26;4.50;99.90
21353;DHT22;10834;52.268;6.770;2022-12-05T07:54:13;4.50;99.90
21353;DHT22;10834;52.268;6.770;2022-12-05T07:56:59;4.50;99.90
21353;DHT22;10834;52.268;6.770;2022-12-05T07:59:45;4.50;99.90
21353;DHT22;10834;52.268;6.770;2022-12-05T08:02:31;4.50;99.90
21353;DHT22;10834;52.268;6.770;2022-12-05T08:05:17;4.60;99.90
21353;DHT22;10834;52.268;6.770;2022-12-05T08:08:03;4.60;99.90
21353;DHT22;10834;52.268;6.770;2022-12-05T08:10:49;4.60;99.90
21353;DHT22;10834;52.268;6.770;2022-12-05T08:13:35;4.60;99.90
21353;DHT22;10834;52.268;6.770;2022-12-05T08:16:24;4.60;99.90
21353;DHT22;10834;52.268;6.770;2022-12-05T08:19:11;4.60;99.90
21353;DHT22;10834;52.268;6.770;2022-12-05T08:22:01;4.70;99.90
21353;DHT22;10834;52.268;6.770;2022-12-05T08:24:51;4.70;99.90
21353;DHT22;10834;52.268;6.770;2022-12-05T08:27:37;4.70;99.90
21353;DHT22;10834;52.268;6.770;2022-12-05T08:30:23;4.60;99.90
21353;DHT22;10834;52.268;6.770;2022-12-05T08:33:09;4.70;99.90
21353;DHT22;10834;52.268;6.770;2022-12-05T08:35:55;4.70;99.90
21353;DHT22;10834;52.268;6.770;2022-12-05T08:38:42;4.70;99.90
21353;DHT22;10834;52.268;6.770;2022-12-05T08:41:28;4.80;99.90
21353;DHT22;10834;52.268;6.770;2022-12-05T08:44:15;4.80;99.90
21353;DHT22;10834;52.268;6.770;2022-12-05T08:47:01;4.80;99.90
21353;DHT22;10834;52.268;6.770;2022-12-05T08:49:47;4.90;99.90
21353;DHT22;10834;52.268;6.770;2022-12-05T08:52:33;4.90;99.90
21353;DHT22;10834;52.268;6.770;2022-12-05T08:55:19;4.90;99.90
21353;DHT22;10834;52.268;6.770;2022-12-05T08:58:06;5.00;99.90
21353;DHT22;10834;52.268;6.770;2022-12-05T09:00:52;5.00;99.90
21353;DHT22;10834;52.268;6.770;2022-12-05T09:03:39;5.00;99.90
21353;DHT22;10834;52.268;6.770;2022-12-05T09:06:26;5.10;99.90
21353;DHT22;10834;52.268;6.770;2022-12-05T09:09:13;5.10;99.90
21353;DHT22;10834;52.268;6.770;2022-12-05T09:11:59;5.10;99.90
21353;DHT22;10834;52.268;6.770;2022-12-05T09:14:45;5.10;99.90
21353;DHT22;10834;52.268;6.770;2022-12-05T09:17:31;5.10;99.90
21353;DHT22;10834;52.268;6.770;2022-12-05T09:20:18;5.10;99.90
21353;DHT22;10834;52.268;6.770;2022-12-05T09:23:04;5.10;99.90
21353;DHT22;10834;52.268;6.770;2022-12-05T09:25:53;5.10;99.90
21353;DHT22;10834;52.268;6.770;2022-12-05T09:28:46;5.10;99.90
21353;DHT22;10834;52.268;6.770;2022-12-05T09:31:32;5.10;99.90
21353;DHT22;10834;52.268;6.770;2022-12-05T09:34:18;5.10;99.90
21353;DHT22;10834;52.268;6.770;2022-12-05T09:37:05;5.10;99.90
21353;DHT22;10834;52.268;6.770;2022-12-05T09:39:51;5.10;99.90
21353;DHT22;10834;52.268;6.770;2022-12-05T09:45:45;5.10;99.90
21353;DHT22;10834;52.268;6.770;2022-12-05T09:48:37;5.10;99.90
21353;DHT22;10834;52.268;6.770;2022-12-05T09:51:25;5.20;99.90
21353;DHT22;10834;52.268;6.770;2022-12-05T09:54:12;5.20;99.90
21353;DHT22;10834;52.268;6.770;2022-12-05T09:56:59;5.20;99.90
21353;DHT22;10834;52.268;6.770;2022-12-05T09:59:45;5.20;99.90
21353;DHT22;10834;52.268;6.770;2022-12-05T10:05:45;5.20;99.90
21353;DHT22;10834;52.268;6.770;2022-12-05T10:17:37;5.20;99.90
21353;DHT22;10834;52.268;6.770;2022-12-05T10:26:34;5.20;99.90
21353;DHT22;10834;52.268;6.770;2022-12-05T10:29:58;5.30;99.90
21353;DHT22;10834;52.268;6.770;2022-12-05T10:32:57;5.20;99.90
21353;DHT22;10834;52.268;6.770;2022-12-05T10:35:43;5.30;99.90
21353;DHT22;10834;52.268;6.770;2022-12-05T10:38:30;5.30;99.90
21353;DHT22;10834;52.268;6.770;2022-12-05T10:41:17;5.30;99.90
21353;DHT22;10834;52.268;6.770;2022-12-05T10:44:04;5.30;99.90
21353;DHT22;10834;52.268;6.770;2022-12-05T10:46:50;5.30;99.90
21353;DHT22;10834;52.268;6.770;2022-12-05T10:49:37;5.30;99.90
21353;DHT22;10834;52.268;6.770;2022-12-05T10:52:23;5.30;99.90
21353;DHT22;10834;52.268;6.770;2022-12-05T10:55:15;5.30;99.90
21353;DHT22;10834;52.268;6.770;2022-12-05T10:58:15;5.30;99.90
21353;DHT22;10834;52.268;6.770;2022-12-05T11:01:09;5.30;99.90
21353;DHT22;10834;52.268;6.770;2022-12-05T11:04:17;5.20;99.90
21353;DHT22;10834;52.268;6.770;2022-12-05T11:07:04;5.30;99.90
21353;DHT22;10834;52.268;6.770;2022-12-05T11:09:51;5.30;99.90
21353;DHT22;10834;52.268;6.770;2022-12-05T11:12:40;5.20;99.90
21353;DHT22;10834;52.268;6.770;2022-12-05T11:15:28;5.30;99.90
21353;DHT22;10834;52.268;6.770;2022-12-05T11:18:32;5.30;99.90
21353;DHT22;10834;52.268;6.770;2022-12-05T11:21:18;5.30;99.90
21353;DHT22;10834;52.268;6.770;2022-12-05T11:24:22;5.30;99.90
21353;DHT22;10834;52.268;6.770;2022-12-05T11:33:24;5.40;99.90
21353;DHT22;10834;52.268;6.770;2022-12-05T11:36:21;5.40;99.90
21353;DHT22;10834;52.268;6.770;2022-12-05T11:39:10;5.40;99.90
21353;DHT22;10834;52.268;6.770;2022-12-05T11:42:22;5.50;99.90
21353;DHT22;10834;52.268;6.770;2022-12-05T11:48:46;5.40;99.90
21353;DHT22;10834;52.268;6.770;2022-12-05T11:55:28;5.40;99.90
21353;DHT22;10834;52.268;6.770;2022-12-05T11:58:45;5.50;99.90
21353;DHT22;10834;52.268;6.770;2022-12-05T12:28:44;5.50;99.90
21353;DHT22;10834;52.268;6.770;2022-12-05T12:35:16;5.50;99.90
21353;DHT22;10834;52.268;6.770;2022-12-05T12:50:43;5.50;99.90
21353;DHT22;10834;52.268;6.770;2022-12-05T13:06:04;5.50;99.90
21353;DHT22;10834;52.268;6.770;2022-12-05T13:08:58;5.50;99.90
21353;DHT22;10834;52.268;6.770;2022-12-05T13:11:47;5.50;99.90
21353;DHT22;10834;52.268;6.770;2022-12-05T13:14:37;5.50;99.90
21353;DHT22;10834;52.268;6.770;2022-12-05T13:17:24;5.50;99.90
21353;DHT22;10834;52.268;6.770;2022-12-05T13:20:31;5.50;99.90
21353;DHT22;10834;52.268;6.770;2022-12-05T13:23:22;5.50;99.90
21353;DHT22;10834;52.268;6.770;2022-12-05T13:26:10;5.50;99.90
21353;DHT22;10834;52.268;6.770;2022-12-05T13:29:00;5.40;99.90
21353;DHT22;10834;52.268;6.770;2022-12-05T13:31:46;5.40;99.90
21353;DHT22;10834;52.268;6.770;2022-12-05T13:34:42;5.40;99.90
21353;DHT22;10834;52.268;6.770;2022-12-05T13:37:32;5.40;99.90
21353;DHT22;10834;52.268;6.770;2022-12-05T13:40:40;5.40;99.90
21353;DHT22;10834;52.268;6.770;2022-12-05T13:43:53;5.40;99.90
21353;DHT22;10834;52.268;6.770;2022-12-05T13:46:42;5.50;99.90
21353;DHT22;10834;52.268;6.770;2022-12-05T13:49:51;5.40;99.90
21353;DHT22;10834;52.268;6.770;2022-12-05T13:52:49;5.50;99.90
21353;DHT22;10834;52.268;6.770;2022-12-05T13:55:56;5.50;99.90
21353;DHT22;10834;52.268;6.770;2022-12-05T13:58:51;5.50;99.90
21353;DHT22;10834;52.268;6.770;2022-12-05T14:01:44;5.50;99.90
21353;DHT22;10834;52.268;6.770;2022-12-05T14:04:48;5.60;99.90
21353;DHT22;10834;52.268;6.770;2022-12-05T14:19:29;5.60;99.90
21353;DHT22;10834;52.268;6.770;2022-12-05T14:26:01;5.60;99.90
21353;DHT22;10834;52.268;6.770;2022-12-05T14:29:02;5.60;99.90
21353;DHT22;10834;52.268;6.770;2022-12-05T14:35:23;5.50;99.90
21353;DHT22;10834;52.268;6.770;2022-12-05T14:41:14;5.50;99.90
21353;DHT22;10834;52.268;6.770;2022-12-05T14:44:02;5.50;99.90
21353;DHT22;10834;52.268;6.770;2022-12-05T14:46:48;5.50;99.90
21353;DHT22;10834;52.268;6.770;2022-12-05T14:49:48;5.50;99.90
21353;DHT22;10834;52.268;6.770;2022-12-05T14:52:36;5.50;99.90
21353;DHT22;10834;52.268;6.770;2022-12-05T14:55:25;5.50;99.90
21353;DHT22;10834;52.268;6.770;2022-12-05T14:58:36;5.50;99.90
21353;DHT22;10834;52.268;6.770;2022-12-05T15:01:53;5.50;99.90
21353;DHT22;10834;52.268;6.770;2022-12-05T15:07:36;5.50;99.90
21353;DHT22;10834;52.268;6.770;2022-12-05T15:10:34;5.50;99.90
21353;DHT22;10834;52.268;6.770;2022-12-05T15:13:23;5.50;99.90
21353;DHT22;10834;52.268;6.770;2022-12-05T15:16:16;5.40;99.90
21353;DHT22;10834;52.268;6.770;2022-12-05T15:19:08;5.40;99.90
21353;DHT22;10834;52.268;6.770;2022-12-05T15:21:59;5.40;99.90
21353;DHT22;10834;52.268;6.770;2022-12-05T15:24:46;5.40;99.90
21353;DHT22;10834;52.268;6.770;2022-12-05T15:27:32;5.50;99.90
21353;DHT22;10834;52.268;6.770;2022-12-05T15:30:18;5.40;99.90
21353;DHT22;10834;52.268;6.770;2022-12-05T15:33:04;5.30;99.90
21353;DHT22;10834;52.268;6.770;2022-12-05T15:35:57;5.40;99.90
21353;DHT22;10834;52.268;6.770;2022-12-05T15:38:44;5.40;99.90
21353;DHT22;10834;52.268;6.770;2022-12-05T15:41:30;5.40;99.90
21353;DHT22;10834;52.268;6.770;2022-12-05T15:44:16;5.30;99.90
21353;DHT22;10834;52.268;6.770;2022-12-05T15:47:03;5.40;99.90
21353;DHT22;10834;52.268;6.770;2022-12-05T15:49:50;5.30;99.90
21353;DHT22;10834;52.268;6.770;2022-12-05T15:55:35;5.40;99.90
21353;DHT22;10834;52.268;6.770;2022-12-05T15:58:29;5.40;99.90
21353;DHT22;10834;52.268;6.770;2022-12-05T16:01:24;5.30;99.90
21353;DHT22;10834;52.268;6.770;2022-12-05T16:04:18;5.40;99.90
21353;DHT22;10834;52.268;6.770;2022-12-05T16:07:08;5.30;99.90
21353;DHT22;10834;52.268;6.770;2022-12-05T16:09:57;5.30;99.90
21353;DHT22;10834;52.268;6.770;2022-12-05T16:12:44;5.40;99.90
21353;DHT22;10834;52.268;6.770;2022-12-05T16:15:30;5.30;99.90
21353;DHT22;10834;52.268;6.770;2022-12-05T16:24:19;5.30;99.90
21353;DHT22;10834;52.268;6.770;2022-12-05T16:27:16;5.40;99.90
21353;DHT22;10834;52.268;6.770;2022-12-05T16:33:04;5.30;99.90
21353;DHT22;10834;52.268;6.770;2022-12-05T16:35:51;5.40;99.90
21353;DHT22;10834;52.268;6.770;2022-12-05T16:38:38;5.40;99.90
21353;DHT22;10834;52.268;6.770;2022-12-05T16:41:37;5.30;99.90
21353;DHT22;10834;52.268;6.770;2022-12-05T16:47:24;5.30;99.90
21353;DHT22;10834;52.268;6.770;2022-12-05T16:50:37;5.30;99.90
21353;DHT22;10834;52.268;6.770;2022-12-05T16:53:31;5.40;99.90
21353;DHT22;10834;52.268;6.770;2022-12-05T16:56:26;5.30;99.90
21353;DHT22;10834;52.268;6.770;2022-12-05T16:59:23;5.30;99.90
21353;DHT22;10834;52.268;6.770;2022-12-05T17:02:12;5.30;99.90
21353;DHT22;10834;52.268;6.770;2022-12-05T17:05:01;5.40;99.90
21353;DHT22;10834;52.268;6.770;2022-12-05T17:07:51;5.30;99.90
21353;DHT22;10834;52.268;6.770;2022-12-05T17:10:37;5.30;99.90
21353;DHT22;10834;52.268;6.770;2022-12-05T17:13:24;5.30;99.90
21353;DHT22;10834;52.268;6.770;2022-12-05T17:16:10;5.30;99.90
21353;DHT22;10834;52.268;6.770;2022-12-05T17:18:56;5.30;99.90
21353;DHT22;10834;52.268;6.770;2022-12-05T17:21:42;5.30;99.90
21353;DHT22;10834;52.268;6.770;2022-12-05T17:24:29;5.30;99.90
21353;DHT22;10834;52.268;6.770;2022-12-05T17:27:15;5.30;99.90
21353;DHT22;10834;52.268;6.770;2022-12-05T17:30:01;5.30;99.90
21353;DHT22;10834;52.268;6.770;2022-12-05T17:32:47;5.30;99.90
21353;DHT22;10834;52.268;6.770;2022-12-05T17:35:33;5.30;99.90
21353;DHT22;10834;52.268;6.770;2022-12-05T17:38:20;5.30;99.90
21353;DHT22;10834;52.268;6.770;2022-12-05T17:41:09;5.30;99.90
21353;DHT22;10834;52.268;6.770;2022-12-05T17:43:58;5.30;99.90
21353;DHT22;10834;52.268;6.770;2022-12-05T17:46:44;5.30;99.90
21353;DHT22;10834;52.268;6.770;2022-12-05T17:49:31;5.30;99.90
21353;DHT22;10834;52.268;6.770;2022-12-05T17:52:17;5.30;99.90
21353;DHT22;10834;52.268;6.770;2022-12-05T17:55:03;5.30;99.90
21353;DHT22;10834;52.268;6.770;2022-12-05T17:57:49;5.30;99.90
21353;DHT22;10834;52.268;6.770;2022-12-05T18:00:36;5.30;99.90
21353;DHT22;10834;52.268;6.770;2022-12-05T18:03:22;5.30;99.90
21353;DHT22;10834;52.268;6.770;2022-12-05T18:06:08;5.30;99.90
21353;DHT22;10834;52.268;6.770;2022-12-05T18:08:54;5.30;99.90
21353;DHT22;10834;52.268;6.770;2022-12-05T18:11:40;5.30;99.90
21353;DHT22;10834;52.268;6.770;2022-12-05T18:14:26;5.30;99.90
21353;DHT22;10834;52.268;6.770;2022-12-05T18:17:13;5.30;99.90
21353;DHT22;10834;52.268;6.770;2022-12-05T18:19:59;5.30;99.90
21353;DHT22;10834;52.268;6.770;2022-12-05T18:22:45;5.30;99.90
21353;DHT22;10834;52.268;6.770;2022-12-05T18:25:31;5.30;99.90
21353;DHT22;10834;52.268;6.770;2022-12-05T18:28:17;5.40;99.90
21353;DHT22;10834;52.268;6.770;2022-12-05T18:31:11;5.40;99.90
21353;DHT22;10834;52.268;6.770;2022-12-05T18:33:59;5.40;99.90
21353;DHT22;10834;52.268;6.770;2022-12-05T18:36:45;5.30;99.90
21353;DHT22;10834;52.268;6.770;2022-12-05T18:39:31;5.40;99.90
21353;DHT22;10834;52.268;6.770;2022-12-05T18:42:17;5.40;99.90
21353;DHT22;10834;52.268;6.770;2022-12-05T18:45:04;5.40;99.90
21353;DHT22;10834;52.268;6.770;2022-12-05T18:47:50;5.40;99.90
21353;DHT22;10834;52.268;6.770;2022-12-05T18:50:36;5.40;99.90
21353;DHT22;10834;52.268;6.770;2022-12-05T18:53:22;5.40;99.90
21353;DHT22;10834;52.268;6.770;2022-12-05T18:56:10;5.40;99.90
21353;DHT22;10834;52.268;6.770;2022-12-05T18:59:00;5.40;99.90
21353;DHT22;10834;52.268;6.770;2022-12-05T19:01:49;5.40;99.90
21353;DHT22;10834;52.268;6.770;2022-12-05T19:04:35;5.40;99.90
21353;DHT22;10834;52.268;6.770;2022-12-05T19:07:21;5.40;99.90
21353;DHT22;10834;52.268;6.770;2022-12-05T19:10:08;5.40;99.90
21353;DHT22;10834;52.268;6.770;2022-12-05T19:12:55;5.40;99.90
21353;DHT22;10834;52.268;6.770;2022-12-05T19:15:42;5.40;99.90
21353;DHT22;10834;52.268;6.770;2022-12-05T19:18:28;5.40;99.90
21353;DHT22;10834;52.268;6.770;2022-12-05T19:21:14;5.40;99.90
21353;DHT22;10834;52.268;6.770;2022-12-05T19:24:02;5.40;99.90
21353;DHT22;10834;52.268;6.770;2022-12-05T19:26:48;5.50;99.90
21353;DHT22;10834;52.268;6.770;2022-12-05T19:29:35;5.50;99.90
21353;DHT22;10834;52.268;6.770;2022-12-05T19:32:21;5.50;99.90
21353;DHT22;10834;52.268;6.770;2022-12-05T19:35:07;5.50;99.90
21353;DHT22;10834;52.268;6.770;2022-12-05T19:37:54;5.50;99.90
21353;DHT22;10834;52.268;6.770;2022-12-05T19:40:40;5.50;99.90
21353;DHT22;10834;52.268;6.770;2022-12-05T19:43:28;5.50;99.90
21353;DHT22;10834;52.268;6.770;2022-12-05T19:46:19;5.40;99.90
21353;DHT22;10834;52.268;6.770;2022-12-05T19:49:08;5.50;99.90
21353;DHT22;10834;52.268;6.770;2022-12-05T19:51:54;5.50;99.90
21353;DHT22;10834;52.268;6.770;2022-12-05T19:54:40;5.50;99.90
21353;DHT22;10834;52.268;6.770;2022-12-05T19:57:26;5.50;99.90
21353;DHT22;10834;52.268;6.770;2022-12-05T20:00:13;5.40;99.90
21353;DHT22;10834;52.268;6.770;2022-12-05T20:03:01;5.50;99.90
21353;DHT22;10834;52.268;6.770;2022-12-05T20:05:57;5.50;99.90
21353;DHT22;10834;52.268;6.770;2022-12-05T20:08:44;5.40;99.90
21353;DHT22;10834;52.268;6.770;2022-12-05T20:11:30;5.40;99.90
21353;DHT22;10834;52.268;6.770;2022-12-05T20:14:17;5.50;99.90
21353;DHT22;10834;52.268;6.770;2022-12-05T20:17:03;5.50;99.90
21353;DHT22;10834;52.268;6.770;2022-12-05T20:19:50;5.50;99.90
21353;DHT22;10834;52.268;6.770;2022-12-05T20:22:36;5.50;99.90
21353;DHT22;10834;52.268;6.770;2022-12-05T20:25:22;5.50;99.90
21353;DHT22;10834;52.268;6.770;2022-12-05T20:28:08;5.50;99.90
21353;DHT22;10834;52.268;6.770;2022-12-05T20:31:11;5.50;99.90
21353;DHT22;10834;52.268;6.770;2022-12-05T20:33:58;5.50;99.90
21353;DHT22;10834;52.268;6.770;2022-12-05T20:36:44;5.60;99.90
21353;DHT22;10834;52.268;6.770;2022-12-05T20:39:30;5.50;99.90
21353;DHT22;10834;52.268;6.770;2022-12-05T20:42:17;5.50;99.90
21353;DHT22;10834;52.268;6.770;2022-12-05T20:45:04;5.50;99.90
21353;DHT22;10834;52.268;6.770;2022-12-05T20:47:50;5.50;99.90
21353;DHT22;10834;52.268;6.770;2022-12-05T20:50:36;5.50;99.90
21353;DHT22;10834;52.268;6.770;2022-12-05T20:53:22;5.60;99.90
21353;DHT22;10834;52.268;6.770;2022-12-05T20:56:13;5.60;99.90
21353;DHT22;10834;52.268;6.770;2022-12-05T20:59:02;5.50;99.90
21353;DHT22;10834;52.268;6.770;2022-12-05T21:01:49;5.50;99.90
21353;DHT22;10834;52.268;6.770;2022-12-05T21:04:35;5.60;99.90
21353;DHT22;10834;52.268;6.770;2022-12-05T21:07:26;5.60;99.90